sensor_id;sensor_type;location;lat;lon;timestamp;P1;durP1;ratioP1;P2;durP2;ratioP2
5559;SDS011;2803;47.916;8.074;2022-12-18T00:00:03;11.60;;;5.27;;
5559;SDS011;2803;47.916;8.074;2022-12-18T00:02:31;12.57;;;5.50;;
5559;SDS011;2803;47.916;8.074;2022-12-18T00:04:58;15.67;;;5.43;;
5559;SDS011;2803;47.916;8.074;2022-12-18T00:07:25;9.50;;;4.90;;
5559;SDS011;2803;47.916;8.074;2022-12-18T00:09:52;13.33;;;4.90;;
5559;SDS011;2803;47.916;8.074;2022-12-18T00:12:18;13.73;;;5.47;;
5559;SDS011;2803;47.916;8.074;2022-12-18T00:14:46;13.90;;;5.13;;
5559;SDS011;2803;47.916;8.074;2022-12-18T00:17:13;12.07;;;5.00;;
5559;SDS011;2803;47.916;8.074;2022-12-18T00:19:39;11.63;;;5.53;;
5559;SDS011;2803;47.916;8.074;2022-12-18T00:22:06;12.87;;;5.57;;
5559;SDS011;2803;47.916;8.074;2022-12-18T00:24:32;13.77;;;6.07;;
5559;SDS011;2803;47.916;8.074;2022-12-18T00:26:59;12.90;;;6.33;;
5559;SDS011;2803;47.916;8.074;2022-12-18T00:29:26;10.67;;;5.20;;
5559;SDS011;2803;47.916;8.074;2022-12-18T00:31:54;15.10;;;5.73;;
5559;SDS011;2803;47.916;8.074;2022-12-18T00:34:20;10.10;;;4.90;;
5559;SDS011;2803;47.916;8.074;2022-12-18T00:36:47;11.63;;;5.73;;
5559;SDS011;2803;47.916;8.074;2022-12-18T00:39:14;22.30;;;6.83;;
5559;SDS011;2803;47.916;8.074;2022-12-18T00:41:40;13.63;;;6.30;;
5559;SDS011;2803;47.916;8.074;2022-12-18T00:44:21;15.97;;;6.87;;
5559;SDS011;2803;47.916;8.074;2022-12-18T00:46:48;15.00;;;7.37;;
5559;SDS011;2803;47.916;8.074;2022-12-18T00:49:16;17.03;;;6.87;;
5559;SDS011;2803;47.916;8.074;2022-12-18T00:51:44;15.60;;;6.30;;
5559;SDS011;2803;47.916;8.074;2022-12-18T00:54:10;15.77;;;6.10;;
5559;SDS011;2803;47.916;8.074;2022-12-18T00:56:38;16.70;;;6.10;;
5559;SDS011;2803;47.916;8.074;2022-12-18T00:59:05;8.80;;;5.40;;
5559;SDS011;2803;47.916;8.074;2022-12-18T01:01:32;12.30;;;6.07;;
5559;SDS011;2803;47.916;8.074;2022-12-18T01:03:59;12.37;;;6.10;;
5559;SDS011;2803;47.916;8.074;2022-12-18T01:06:28;19.37;;;6.83;;
5559;SDS011;2803;47.916;8.074;2022-12-18T01:08:56;10.40;;;5.37;;
5559;SDS011;2803;47.916;8.074;2022-12-18T01:11:23;13.60;;;7.73;;
5559;SDS011;2803;47.916;8.074;2022-12-18T01:13:50;14.27;;;7.40;;
5559;SDS011;2803;47.916;8.074;2022-12-18T01:16:17;20.93;;;7.20;;
5559;SDS011;2803;47.916;8.074;2022-12-18T01:18:44;16.33;;;7.07;;
5559;SDS011;2803;47.916;8.074;2022-12-18T01:21:12;22.53;;;8.60;;
5559;SDS011;2803;47.916;8.074;2022-12-18T01:23:41;14.10;;;6.53;;
5559;SDS011;2803;47.916;8.074;2022-12-18T01:26:09;15.33;;;7.13;;
5559;SDS011;2803;47.916;8.074;2022-12-18T01:28:37;21.23;;;8.67;;
5559;SDS011;2803;47.916;8.074;2022-12-18T01:31:11;26.10;;;7.97;;
5559;SDS011;2803;47.916;8.074;2022-12-18T01:33:39;17.10;;;7.50;;
5559;SDS011;2803;47.916;8.074;2022-12-18T01:36:06;20.50;;;7.80;;
5559;SDS011;2803;47.916;8.074;2022-12-18T01:38:34;18.20;;;7.47;;
5559;SDS011;2803;47.916;8.074;2022-12-18T01:41:02;17.13;;;7.50;;
5559;SDS011;2803;47.916;8.074;2022-12-18T01:46:12;19.23;;;7.20;;
5559;SDS011;2803;47.916;8.074;2022-12-18T01:48:39;18.00;;;8.27;;
5559;SDS011;2803;47.916;8.074;2022-12-18T01:51:07;12.90;;;7.03;;
5559;SDS011;2803;47.916;8.074;2022-12-18T01:53:36;16.87;;;7.13;;
5559;SDS011;2803;47.916;8.074;2022-12-18T01:56:06;14.97;;;7.33;;
5559;SDS011;2803;47.916;8.074;2022-12-18T01:58:35;15.83;;;7.10;;
5559;SDS011;2803;47.916;8.074;2022-12-18T02:01:08;17.93;;;8.20;;
5559;SDS011;2803;47.916;8.074;2022-12-18T02:03:35;16.87;;;7.10;;
5559;SDS011;2803;47.916;8.074;2022-12-18T02:06:04;14.93;;;7.33;;
5559;SDS011;2803;47.916;8.074;2022-12-18T02:08:37;16.30;;;7.70;;
5559;SDS011;2803;47.916;8.074;2022-12-18T02:11:15;18.83;;;7.60;;
5559;SDS011;2803;47.916;8.074;2022-12-18T02:13:50;15.77;;;6.37;;
5559;SDS011;2803;47.916;8.074;2022-12-18T02:16:24;15.43;;;5.77;;
5559;SDS011;2803;47.916;8.074;2022-12-18T02:18:56;19.37;;;7.57;;
5559;SDS011;2803;47.916;8.074;2022-12-18T02:21:27;18.80;;;7.00;;
5559;SDS011;2803;47.916;8.074;2022-12-18T02:24:16;19.40;;;7.40;;
5559;SDS011;2803;47.916;8.074;2022-12-18T02:26:52;17.73;;;7.20;;
5559;SDS011;2803;47.916;8.074;2022-12-18T02:29:23;17.50;;;7.00;;
5559;SDS011;2803;47.916;8.074;2022-12-18T02:31:54;18.67;;;7.93;;
5559;SDS011;2803;47.916;8.074;2022-12-18T02:34:23;18.10;;;7.60;;
5559;SDS011;2803;47.916;8.074;2022-12-18T02:36:53;22.10;;;8.30;;
5559;SDS011;2803;47.916;8.074;2022-12-18T02:39:21;18.03;;;7.43;;
5559;SDS011;2803;47.916;8.074;2022-12-18T02:41:49;18.50;;;7.80;;
5559;SDS011;2803;47.916;8.074;2022-12-18T02:44:18;23.67;;;8.47;;
5559;SDS011;2803;47.916;8.074;2022-12-18T02:46:45;16.53;;;7.90;;
5559;SDS011;2803;47.916;8.074;2022-12-18T02:49:20;20.70;;;8.00;;
5559;SDS011;2803;47.916;8.074;2022-12-18T02:51:55;19.30;;;7.80;;
5559;SDS011;2803;47.916;8.074;2022-12-18T02:54:34;19.10;;;7.80;;
5559;SDS011;2803;47.916;8.074;2022-12-18T02:57:13;25.13;;;8.00;;
5559;SDS011;2803;47.916;8.074;2022-12-18T02:59:46;18.87;;;7.67;;
5559;SDS011;2803;47.916;8.074;2022-12-18T03:02:21;15.60;;;7.70;;
5559;SDS011;2803;47.916;8.074;2022-12-18T03:04:54;26.80;;;9.50;;
5559;SDS011;2803;47.916;8.074;2022-12-18T03:07:28;21.20;;;9.50;;
5559;SDS011;2803;47.916;8.074;2022-12-18T03:10:01;21.30;;;10.13;;
5559;SDS011;2803;47.916;8.074;2022-12-18T03:12:30;18.13;;;8.43;;
5559;SDS011;2803;47.916;8.074;2022-12-18T03:15:01;22.50;;;8.73;;
5559;SDS011;2803;47.916;8.074;2022-12-18T03:17:31;21.80;;;9.57;;
5559;SDS011;2803;47.916;8.074;2022-12-18T03:19:59;23.87;;;9.60;;
5559;SDS011;2803;47.916;8.074;2022-12-18T03:22:32;20.27;;;9.73;;
5559;SDS011;2803;47.916;8.074;2022-12-18T03:25:00;27.93;;;11.47;;
5559;SDS011;2803;47.916;8.074;2022-12-18T03:27:30;30.80;;;11.00;;
5559;SDS011;2803;47.916;8.074;2022-12-18T03:30:00;33.37;;;10.67;;
5559;SDS011;2803;47.916;8.074;2022-12-18T03:32:33;28.93;;;10.77;;
5559;SDS011;2803;47.916;8.074;2022-12-18T03:35:05;33.27;;;13.07;;
5559;SDS011;2803;47.916;8.074;2022-12-18T03:37:34;35.20;;;12.33;;
5559;SDS011;2803;47.916;8.074;2022-12-18T03:40:00;34.07;;;11.83;;
5559;SDS011;2803;47.916;8.074;2022-12-18T03:42:28;27.20;;;10.20;;
5559;SDS011;2803;47.916;8.074;2022-12-18T03:45:02;32.40;;;12.17;;
5559;SDS011;2803;47.916;8.074;2022-12-18T03:47:36;30.43;;;11.67;;
5559;SDS011;2803;47.916;8.074;2022-12-18T03:50:09;33.50;;;10.40;;
5559;SDS011;2803;47.916;8.074;2022-12-18T03:52:41;35.77;;;12.23;;
5559;SDS011;2803;47.916;8.074;2022-12-18T03:55:13;28.77;;;11.30;;
5559;SDS011;2803;47.916;8.074;2022-12-18T03:57:41;37.13;;;12.70;;
5559;SDS011;2803;47.916;8.074;2022-12-18T04:00:09;34.60;;;12.77;;
5559;SDS011;2803;47.916;8.074;2022-12-18T04:02:39;37.07;;;12.07;;
5559;SDS011;2803;47.916;8.074;2022-12-18T04:05:11;37.30;;;12.03;;
5559;SDS011;2803;47.916;8.074;2022-12-18T04:07:38;29.23;;;11.00;;
5559;SDS011;2803;47.916;8.074;2022-12-18T04:10:06;30.20;;;11.70;;
5559;SDS011;2803;47.916;8.074;2022-12-18T04:12:37;30.10;;;11.63;;
5559;SDS011;2803;47.916;8.074;2022-12-18T04:15:06;36.00;;;13.00;;
5559;SDS011;2803;47.916;8.074;2022-12-18T04:17:34;37.17;;;12.40;;
5559;SDS011;2803;47.916;8.074;2022-12-18T04:20:00;42.80;;;13.37;;
5559;SDS011;2803;47.916;8.074;2022-12-18T04:22:27;39.93;;;13.40;;
5559;SDS011;2803;47.916;8.074;2022-12-18T04:24:54;46.47;;;15.03;;
5559;SDS011;2803;47.916;8.074;2022-12-18T04:27:20;33.13;;;12.67;;
5559;SDS011;2803;47.916;8.074;2022-12-18T04:29:47;26.70;;;11.23;;
5559;SDS011;2803;47.916;8.074;2022-12-18T04:32:15;37.67;;;13.47;;
5559;SDS011;2803;47.916;8.074;2022-12-18T04:34:42;32.60;;;11.70;;
5559;SDS011;2803;47.916;8.074;2022-12-18T04:37:08;37.57;;;11.37;;
5559;SDS011;2803;47.916;8.074;2022-12-18T04:39:36;33.13;;;12.40;;
5559;SDS011;2803;47.916;8.074;2022-12-18T04:42:02;34.93;;;12.67;;
5559;SDS011;2803;47.916;8.074;2022-12-18T04:44:29;34.87;;;13.20;;
5559;SDS011;2803;47.916;8.074;2022-12-18T04:46:56;34.30;;;11.97;;
5559;SDS011;2803;47.916;8.074;2022-12-18T04:49:24;32.10;;;11.03;;
5559;SDS011;2803;47.916;8.074;2022-12-18T04:51:50;26.67;;;11.80;;
5559;SDS011;2803;47.916;8.074;2022-12-18T04:54:18;43.17;;;13.03;;
5559;SDS011;2803;47.916;8.074;2022-12-18T04:56:44;30.60;;;11.57;;
5559;SDS011;2803;47.916;8.074;2022-12-18T04:59:11;46.47;;;12.70;;
5559;SDS011;2803;47.916;8.074;2022-12-18T05:01:38;32.47;;;11.27;;
5559;SDS011;2803;47.916;8.074;2022-12-18T05:04:04;42.43;;;12.50;;
5559;SDS011;2803;47.916;8.074;2022-12-18T05:06:32;35.47;;;13.87;;
5559;SDS011;2803;47.916;8.074;2022-12-18T05:08:59;37.50;;;13.67;;
5559;SDS011;2803;47.916;8.074;2022-12-18T05:11:25;38.03;;;13.60;;
5559;SDS011;2803;47.916;8.074;2022-12-18T05:13:52;43.10;;;13.40;;
5559;SDS011;2803;47.916;8.074;2022-12-18T05:16:18;32.90;;;11.67;;
5559;SDS011;2803;47.916;8.074;2022-12-18T05:18:45;35.70;;;13.03;;
5559;SDS011;2803;47.916;8.074;2022-12-18T05:21:12;40.60;;;13.07;;
5559;SDS011;2803;47.916;8.074;2022-12-18T05:23:40;37.43;;;13.10;;
5559;SDS011;2803;47.916;8.074;2022-12-18T05:26:06;38.13;;;13.60;;
5559;SDS011;2803;47.916;8.074;2022-12-18T05:28:34;38.00;;;12.70;;
5559;SDS011;2803;47.916;8.074;2022-12-18T05:31:02;35.70;;;12.60;;
5559;SDS011;2803;47.916;8.074;2022-12-18T05:33:31;38.03;;;13.73;;
5559;SDS011;2803;47.916;8.074;2022-12-18T05:36:02;45.80;;;15.23;;
5559;SDS011;2803;47.916;8.074;2022-12-18T05:38:32;39.83;;;15.07;;
5559;SDS011;2803;47.916;8.074;2022-12-18T05:41:01;48.27;;;15.63;;
5559;SDS011;2803;47.916;8.074;2022-12-18T05:43:28;45.33;;;14.90;;
5559;SDS011;2803;47.916;8.074;2022-12-18T05:45:54;38.90;;;14.53;;
5559;SDS011;2803;47.916;8.074;2022-12-18T05:48:22;34.83;;;13.40;;
5559;SDS011;2803;47.916;8.074;2022-12-18T05:50:49;45.37;;;15.80;;
5559;SDS011;2803;47.916;8.074;2022-12-18T05:53:17;34.03;;;12.93;;
5559;SDS011;2803;47.916;8.074;2022-12-18T05:55:45;36.47;;;13.40;;
5559;SDS011;2803;47.916;8.074;2022-12-18T05:58:13;35.00;;;12.50;;
5559;SDS011;2803;47.916;8.074;2022-12-18T06:00:41;40.47;;;14.03;;
5559;SDS011;2803;47.916;8.074;2022-12-18T06:03:10;35.93;;;12.40;;
5559;SDS011;2803;47.916;8.074;2022-12-18T06:05:38;35.63;;;14.27;;
5559;SDS011;2803;47.916;8.074;2022-12-18T06:08:07;40.23;;;13.73;;
5559;SDS011;2803;47.916;8.074;2022-12-18T06:10:34;40.47;;;13.40;;
5559;SDS011;2803;47.916;8.074;2022-12-18T06:13:01;41.30;;;13.47;;
5559;SDS011;2803;47.916;8.074;2022-12-18T06:15:29;31.73;;;12.10;;
5559;SDS011;2803;47.916;8.074;2022-12-18T06:17:56;50.40;;;14.20;;
5559;SDS011;2803;47.916;8.074;2022-12-18T06:20:23;42.87;;;13.03;;
5559;SDS011;2803;47.916;8.074;2022-12-18T06:22:50;40.30;;;14.73;;
5559;SDS011;2803;47.916;8.074;2022-12-18T06:25:17;35.67;;;11.53;;
5559;SDS011;2803;47.916;8.074;2022-12-18T06:27:43;36.80;;;12.77;;
5559;SDS011;2803;47.916;8.074;2022-12-18T06:30:13;37.83;;;13.03;;
5559;SDS011;2803;47.916;8.074;2022-12-18T06:32:41;38.20;;;12.63;;
5559;SDS011;2803;47.916;8.074;2022-12-18T06:35:07;35.57;;;12.83;;
5559;SDS011;2803;47.916;8.074;2022-12-18T06:37:34;39.20;;;12.60;;
5559;SDS011;2803;47.916;8.074;2022-12-18T06:40:01;36.43;;;12.70;;
5559;SDS011;2803;47.916;8.074;2022-12-18T06:42:28;36.37;;;13.87;;
5559;SDS011;2803;47.916;8.074;2022-12-18T06:44:54;35.80;;;13.30;;
5559;SDS011;2803;47.916;8.074;2022-12-18T06:47:21;32.23;;;13.13;;
5559;SDS011;2803;47.916;8.074;2022-12-18T06:49:49;40.90;;;15.30;;
5559;SDS011;2803;47.916;8.074;2022-12-18T06:52:15;36.00;;;13.20;;
5559;SDS011;2803;47.916;8.074;2022-12-18T06:54:42;35.87;;;13.20;;
5559;SDS011;2803;47.916;8.074;2022-12-18T06:57:09;35.87;;;13.50;;
5559;SDS011;2803;47.916;8.074;2022-12-18T06:59:35;52.93;;;16.03;;
5559;SDS011;2803;47.916;8.074;2022-12-18T07:02:02;37.33;;;13.37;;
5559;SDS011;2803;47.916;8.074;2022-12-18T07:04:29;36.83;;;13.37;;
5559;SDS011;2803;47.916;8.074;2022-12-18T07:06:58;41.67;;;14.53;;
5559;SDS011;2803;47.916;8.074;2022-12-18T07:09:24;48.53;;;14.87;;
5559;SDS011;2803;47.916;8.074;2022-12-18T07:11:51;41.90;;;13.87;;
5559;SDS011;2803;47.916;8.074;2022-12-18T07:14:17;45.10;;;14.37;;
5559;SDS011;2803;47.916;8.074;2022-12-18T07:16:44;40.80;;;14.87;;
5559;SDS011;2803;47.916;8.074;2022-12-18T07:19:11;47.30;;;14.07;;
5559;SDS011;2803;47.916;8.074;2022-12-18T07:21:37;35.93;;;13.63;;
5559;SDS011;2803;47.916;8.074;2022-12-18T07:24:05;43.47;;;14.10;;
5559;SDS011;2803;47.916;8.074;2022-12-18T07:26:32;41.47;;;13.77;;
5559;SDS011;2803;47.916;8.074;2022-12-18T07:28:59;41.50;;;13.53;;
5559;SDS011;2803;47.916;8.074;2022-12-18T07:31:26;39.90;;;12.00;;
5559;SDS011;2803;47.916;8.074;2022-12-18T07:33:53;43.47;;;13.83;;
5559;SDS011;2803;47.916;8.074;2022-12-18T07:36:20;38.27;;;14.57;;
5559;SDS011;2803;47.916;8.074;2022-12-18T07:38:46;54.87;;;15.63;;
5559;SDS011;2803;47.916;8.074;2022-12-18T07:41:15;38.80;;;14.87;;
5559;SDS011;2803;47.916;8.074;2022-12-18T07:43:43;40.17;;;13.60;;
5559;SDS011;2803;47.916;8.074;2022-12-18T07:46:10;47.47;;;14.40;;
5559;SDS011;2803;47.916;8.074;2022-12-18T07:48:38;34.53;;;13.37;;
5559;SDS011;2803;47.916;8.074;2022-12-18T07:51:05;49.23;;;13.93;;
5559;SDS011;2803;47.916;8.074;2022-12-18T07:53:32;37.30;;;13.50;;
5559;SDS011;2803;47.916;8.074;2022-12-18T07:56:01;48.00;;;14.90;;
5559;SDS011;2803;47.916;8.074;2022-12-18T07:58:31;44.60;;;14.43;;
5559;SDS011;2803;47.916;8.074;2022-12-18T08:01:02;43.80;;;15.73;;
5559;SDS011;2803;47.916;8.074;2022-12-18T08:03:29;42.30;;;13.70;;
5559;SDS011;2803;47.916;8.074;2022-12-18T08:05:57;42.70;;;14.57;;
5559;SDS011;2803;47.916;8.074;2022-12-18T08:08:25;48.77;;;16.20;;
5559;SDS011;2803;47.916;8.074;2022-12-18T08:10:51;41.50;;;15.10;;
5559;SDS011;2803;47.916;8.074;2022-12-18T08:13:18;45.83;;;15.87;;
5559;SDS011;2803;47.916;8.074;2022-12-18T08:15:46;39.00;;;12.70;;
5559;SDS011;2803;47.916;8.074;2022-12-18T08:18:21;41.70;;;13.70;;
5559;SDS011;2803;47.916;8.074;2022-12-18T08:20:48;37.47;;;12.57;;
5559;SDS011;2803;47.916;8.074;2022-12-18T08:23:15;42.93;;;14.47;;
5559;SDS011;2803;47.916;8.074;2022-12-18T08:25:42;43.33;;;14.30;;
5559;SDS011;2803;47.916;8.074;2022-12-18T08:28:09;40.17;;;14.20;;
5559;SDS011;2803;47.916;8.074;2022-12-18T08:30:35;42.43;;;15.93;;
5559;SDS011;2803;47.916;8.074;2022-12-18T08:33:03;41.30;;;15.20;;
5559;SDS011;2803;47.916;8.074;2022-12-18T08:35:34;41.07;;;14.83;;
5559;SDS011;2803;47.916;8.074;2022-12-18T08:38:01;40.90;;;14.40;;
5559;SDS011;2803;47.916;8.074;2022-12-18T08:40:28;39.67;;;14.40;;
5559;SDS011;2803;47.916;8.074;2022-12-18T08:42:55;46.23;;;16.07;;
5559;SDS011;2803;47.916;8.074;2022-12-18T08:45:35;38.53;;;14.47;;
5559;SDS011;2803;47.916;8.074;2022-12-18T08:48:03;51.00;;;16.57;;
5559;SDS011;2803;47.916;8.074;2022-12-18T08:50:30;45.73;;;16.00;;
5559;SDS011;2803;47.916;8.074;2022-12-18T08:52:57;47.43;;;15.73;;
5559;SDS011;2803;47.916;8.074;2022-12-18T08:55:23;49.93;;;15.20;;
5559;SDS011;2803;47.916;8.074;2022-12-18T08:57:50;41.80;;;14.33;;
5559;SDS011;2803;47.916;8.074;2022-12-18T09:00:17;47.50;;;16.13;;
5559;SDS011;2803;47.916;8.074;2022-12-18T09:02:45;44.37;;;16.77;;
5559;SDS011;2803;47.916;8.074;2022-12-18T09:05:13;51.37;;;15.53;;
5559;SDS011;2803;47.916;8.074;2022-12-18T09:07:39;45.87;;;16.27;;
5559;SDS011;2803;47.916;8.074;2022-12-18T09:10:06;48.13;;;17.60;;
5559;SDS011;2803;47.916;8.074;2022-12-18T09:12:33;42.93;;;15.07;;
5559;SDS011;2803;47.916;8.074;2022-12-18T09:15:00;51.97;;;17.17;;
5559;SDS011;2803;47.916;8.074;2022-12-18T09:17:26;47.73;;;16.20;;
5559;SDS011;2803;47.916;8.074;2022-12-18T09:19:53;52.07;;;15.90;;
5559;SDS011;2803;47.916;8.074;2022-12-18T09:22:21;42.23;;;14.47;;
5559;SDS011;2803;47.916;8.074;2022-12-18T09:24:48;40.43;;;14.53;;
5559;SDS011;2803;47.916;8.074;2022-12-18T09:27:15;42.90;;;14.97;;
5559;SDS011;2803;47.916;8.074;2022-12-18T09:29:41;34.63;;;14.27;;
5559;SDS011;2803;47.916;8.074;2022-12-18T09:32:08;42.23;;;15.43;;
5559;SDS011;2803;47.916;8.074;2022-12-18T09:34:35;44.33;;;15.30;;
5559;SDS011;2803;47.916;8.074;2022-12-18T09:37:01;41.27;;;14.90;;
5559;SDS011;2803;47.916;8.074;2022-12-18T09:39:29;42.70;;;15.03;;
5559;SDS011;2803;47.916;8.074;2022-12-18T09:41:57;42.10;;;16.37;;
5559;SDS011;2803;47.916;8.074;2022-12-18T09:44:24;43.83;;;14.80;;
5559;SDS011;2803;47.916;8.074;2022-12-18T09:46:56;49.97;;;17.20;;
5559;SDS011;2803;47.916;8.074;2022-12-18T09:49:28;43.73;;;15.97;;
5559;SDS011;2803;47.916;8.074;2022-12-18T09:52:00;37.43;;;15.30;;
5559;SDS011;2803;47.916;8.074;2022-12-18T09:54:32;44.50;;;15.60;;
5559;SDS011;2803;47.916;8.074;2022-12-18T09:57:01;43.70;;;15.07;;
5559;SDS011;2803;47.916;8.074;2022-12-18T09:59:30;47.90;;;17.50;;
5559;SDS011;2803;47.916;8.074;2022-12-18T10:02:02;45.00;;;16.30;;
5559;SDS011;2803;47.916;8.074;2022-12-18T10:04:41;38.30;;;15.30;;
5559;SDS011;2803;47.916;8.074;2022-12-18T10:07:09;43.33;;;17.27;;
5559;SDS011;2803;47.916;8.074;2022-12-18T10:09:43;42.43;;;16.87;;
5559;SDS011;2803;47.916;8.074;2022-12-18T10:12:17;41.50;;;16.17;;
5559;SDS011;2803;47.916;8.074;2022-12-18T10:14:50;43.03;;;16.30;;
5559;SDS011;2803;47.916;8.074;2022-12-18T10:17:25;43.23;;;15.90;;
5559;SDS011;2803;47.916;8.074;2022-12-18T10:19:55;36.53;;;14.53;;
5559;SDS011;2803;47.916;8.074;2022-12-18T10:22:27;37.23;;;15.23;;
5559;SDS011;2803;47.916;8.074;2022-12-18T10:25:05;34.83;;;15.00;;
5559;SDS011;2803;47.916;8.074;2022-12-18T10:27:43;39.10;;;15.17;;
5559;SDS011;2803;47.916;8.074;2022-12-18T10:30:12;39.93;;;16.30;;
5559;SDS011;2803;47.916;8.074;2022-12-18T10:32:40;38.83;;;16.40;;
5559;SDS011;2803;47.916;8.074;2022-12-18T10:35:08;44.60;;;17.40;;
5559;SDS011;2803;47.916;8.074;2022-12-18T10:37:59;40.10;;;16.13;;
5559;SDS011;2803;47.916;8.074;2022-12-18T10:40:32;32.67;;;15.63;;
5559;SDS011;2803;47.916;8.074;2022-12-18T10:43:03;38.03;;;16.70;;
5559;SDS011;2803;47.916;8.074;2022-12-18T10:45:31;40.60;;;18.13;;
5559;SDS011;2803;47.916;8.074;2022-12-18T10:47:57;35.93;;;15.10;;
5559;SDS011;2803;47.916;8.074;2022-12-18T10:50:25;36.97;;;15.43;;
5559;SDS011;2803;47.916;8.074;2022-12-18T10:52:56;36.10;;;16.77;;
5559;SDS011;2803;47.916;8.074;2022-12-18T10:55:24;39.93;;;17.20;;
5559;SDS011;2803;47.916;8.074;2022-12-18T10:57:57;39.43;;;16.87;;
5559;SDS011;2803;47.916;8.074;2022-12-18T11:00:41;40.77;;;16.17;;
5559;SDS011;2803;47.916;8.074;2022-12-18T11:03:15;38.50;;;15.60;;
5559;SDS011;2803;47.916;8.074;2022-12-18T11:06:02;43.47;;;15.70;;
5559;SDS011;2803;47.916;8.074;2022-12-18T11:08:30;39.50;;;16.23;;
5559;SDS011;2803;47.916;8.074;2022-12-18T11:10:57;36.43;;;16.03;;
5559;SDS011;2803;47.916;8.074;2022-12-18T11:13:26;39.23;;;14.90;;
5559;SDS011;2803;47.916;8.074;2022-12-18T11:15:55;39.87;;;16.27;;
5559;SDS011;2803;47.916;8.074;2022-12-18T11:18:25;39.60;;;17.10;;
5559;SDS011;2803;47.916;8.074;2022-12-18T11:20:54;41.93;;;15.40;;
5559;SDS011;2803;47.916;8.074;2022-12-18T11:23:23;44.30;;;16.67;;
5559;SDS011;2803;47.916;8.074;2022-12-18T11:25:51;38.70;;;15.60;;
5559;SDS011;2803;47.916;8.074;2022-12-18T11:31:10;46.03;;;16.93;;
5559;SDS011;2803;47.916;8.074;2022-12-18T11:33:44;46.03;;;17.90;;
5559;SDS011;2803;47.916;8.074;2022-12-18T11:36:15;41.80;;;16.53;;
5559;SDS011;2803;47.916;8.074;2022-12-18T11:38:44;40.70;;;16.73;;
5559;SDS011;2803;47.916;8.074;2022-12-18T11:41:14;38.50;;;16.17;;
5559;SDS011;2803;47.916;8.074;2022-12-18T11:43:49;41.80;;;16.40;;
5559;SDS011;2803;47.916;8.074;2022-12-18T11:49:06;44.23;;;17.70;;
5559;SDS011;2803;47.916;8.074;2022-12-18T11:51:42;37.53;;;15.67;;
5559;SDS011;2803;47.916;8.074;2022-12-18T11:54:14;44.67;;;16.60;;
5559;SDS011;2803;47.916;8.074;2022-12-18T11:56:43;39.37;;;16.17;;
5559;SDS011;2803;47.916;8.074;2022-12-18T11:59:15;44.93;;;15.90;;
5559;SDS011;2803;47.916;8.074;2022-12-18T12:01:51;40.73;;;17.47;;
5559;SDS011;2803;47.916;8.074;2022-12-18T12:04:28;40.90;;;17.30;;
5559;SDS011;2803;47.916;8.074;2022-12-18T12:07:18;40.43;;;17.27;;
5559;SDS011;2803;47.916;8.074;2022-12-18T12:09:59;40.10;;;16.00;;
5559;SDS011;2803;47.916;8.074;2022-12-18T12:12:37;43.87;;;18.30;;
5559;SDS011;2803;47.916;8.074;2022-12-18T12:15:19;50.50;;;17.03;;
5559;SDS011;2803;47.916;8.074;2022-12-18T12:17:52;44.57;;;16.80;;
5559;SDS011;2803;47.916;8.074;2022-12-18T12:20:25;40.10;;;16.77;;
5559;SDS011;2803;47.916;8.074;2022-12-18T12:23:05;46.33;;;18.47;;
5559;SDS011;2803;47.916;8.074;2022-12-18T12:25:41;48.80;;;18.13;;
5559;SDS011;2803;47.916;8.074;2022-12-18T12:28:19;47.27;;;19.73;;
5559;SDS011;2803;47.916;8.074;2022-12-18T12:31:05;48.00;;;19.30;;
5559;SDS011;2803;47.916;8.074;2022-12-18T12:33:40;44.93;;;19.13;;
5559;SDS011;2803;47.916;8.074;2022-12-18T12:36:13;64.73;;;26.00;;
5559;SDS011;2803;47.916;8.074;2022-12-18T12:38:47;77.50;;;28.23;;
5559;SDS011;2803;47.916;8.074;2022-12-18T12:41:18;134.30;;;40.90;;
5559;SDS011;2803;47.916;8.074;2022-12-18T12:44:03;127.90;;;46.80;;
5559;SDS011;2803;47.916;8.074;2022-12-18T12:46:35;100.57;;;33.43;;
5559;SDS011;2803;47.916;8.074;2022-12-18T12:49:08;148.80;;;46.60;;
5559;SDS011;2803;47.916;8.074;2022-12-18T12:51:38;205.90;;;52.57;;
5559;SDS011;2803;47.916;8.074;2022-12-18T12:54:11;238.43;;;57.30;;
5559;SDS011;2803;47.916;8.074;2022-12-18T12:56:42;182.97;;;51.80;;
5559;SDS011;2803;47.916;8.074;2022-12-18T12:59:15;209.77;;;57.43;;
5559;SDS011;2803;47.916;8.074;2022-12-18T13:01:52;127.77;;;44.20;;
5559;SDS011;2803;47.916;8.074;2022-12-18T13:04:23;247.57;;;78.40;;
5559;SDS011;2803;47.916;8.074;2022-12-18T13:06:58;65.53;;;26.13;;
5559;SDS011;2803;47.916;8.074;2022-12-18T13:09:30;99.93;;;31.73;;
5559;SDS011;2803;47.916;8.074;2022-12-18T13:12:01;105.93;;;35.47;;
5559;SDS011;2803;47.916;8.074;2022-12-18T13:14:43;73.47;;;27.70;;
5559;SDS011;2803;47.916;8.074;2022-12-18T13:17:24;89.53;;;31.37;;
5559;SDS011;2803;47.916;8.074;2022-12-18T13:20:04;84.27;;;29.50;;
5559;SDS011;2803;47.916;8.074;2022-12-18T13:22:34;265.63;;;85.27;;
5559;SDS011;2803;47.916;8.074;2022-12-18T13:25:02;178.90;;;58.33;;
5559;SDS011;2803;47.916;8.074;2022-12-18T13:27:55;78.70;;;29.97;;
5559;SDS011;2803;47.916;8.074;2022-12-18T13:36:12;355.43;;;129.93;;
5559;SDS011;2803;47.916;8.074;2022-12-18T13:38:43;270.67;;;83.37;;
5559;SDS011;2803;47.916;8.074;2022-12-18T13:43:53;203.13;;;81.20;;
5559;SDS011;2803;47.916;8.074;2022-12-18T13:46:24;185.60;;;77.37;;
5559;SDS011;2803;47.916;8.074;2022-12-18T13:48:56;113.97;;;50.23;;
5559;SDS011;2803;47.916;8.074;2022-12-18T13:51:26;94.27;;;40.67;;
5559;SDS011;2803;47.916;8.074;2022-12-18T13:53:55;49.20;;;21.40;;
5559;SDS011;2803;47.916;8.074;2022-12-18T13:56:24;105.50;;;48.80;;
5559;SDS011;2803;47.916;8.074;2022-12-18T14:01:41;84.07;;;40.47;;
5559;SDS011;2803;47.916;8.074;2022-12-18T14:04:11;44.73;;;22.00;;
5559;SDS011;2803;47.916;8.074;2022-12-18T14:06:43;76.70;;;40.30;;
5559;SDS011;2803;47.916;8.074;2022-12-18T14:09:12;64.00;;;30.07;;
5559;SDS011;2803;47.916;8.074;2022-12-18T14:11:45;65.17;;;36.90;;
5559;SDS011;2803;47.916;8.074;2022-12-18T14:14:13;73.13;;;32.70;;
5559;SDS011;2803;47.916;8.074;2022-12-18T14:16:41;60.23;;;24.77;;
5559;SDS011;2803;47.916;8.074;2022-12-18T14:19:08;57.17;;;24.93;;
5559;SDS011;2803;47.916;8.074;2022-12-18T14:21:40;57.57;;;30.17;;
5559;SDS011;2803;47.916;8.074;2022-12-18T14:24:13;54.17;;;26.43;;
5559;SDS011;2803;47.916;8.074;2022-12-18T14:26:43;56.87;;;25.73;;
5559;SDS011;2803;47.916;8.074;2022-12-18T14:29:19;55.47;;;19.33;;
5559;SDS011;2803;47.916;8.074;2022-12-18T14:34:31;59.97;;;25.57;;
5559;SDS011;2803;47.916;8.074;2022-12-18T14:36:58;50.80;;;22.60;;
5559;SDS011;2803;47.916;8.074;2022-12-18T14:39:25;70.27;;;28.30;;
5559;SDS011;2803;47.916;8.074;2022-12-18T14:41:52;49.40;;;21.77;;
5559;SDS011;2803;47.916;8.074;2022-12-18T14:44:18;72.13;;;28.33;;
5559;SDS011;2803;47.916;8.074;2022-12-18T14:46:46;71.40;;;32.53;;
5559;SDS011;2803;47.916;8.074;2022-12-18T14:49:18;61.07;;;25.20;;
5559;SDS011;2803;47.916;8.074;2022-12-18T14:51:51;67.53;;;24.80;;
5559;SDS011;2803;47.916;8.074;2022-12-18T14:54:19;58.53;;;23.70;;
5559;SDS011;2803;47.916;8.074;2022-12-18T14:56:47;57.47;;;24.27;;
5559;SDS011;2803;47.916;8.074;2022-12-18T14:59:16;67.73;;;25.63;;
5559;SDS011;2803;47.916;8.074;2022-12-18T15:01:47;67.93;;;26.13;;
5559;SDS011;2803;47.916;8.074;2022-12-18T15:04:23;60.93;;;24.30;;
5559;SDS011;2803;47.916;8.074;2022-12-18T15:07:03;81.40;;;28.87;;
5559;SDS011;2803;47.916;8.074;2022-12-18T15:09:33;54.20;;;20.87;;
5559;SDS011;2803;47.916;8.074;2022-12-18T15:12:00;86.63;;;31.67;;
5559;SDS011;2803;47.916;8.074;2022-12-18T15:14:31;93.27;;;30.13;;
5559;SDS011;2803;47.916;8.074;2022-12-18T15:17:01;58.27;;;23.47;;
5559;SDS011;2803;47.916;8.074;2022-12-18T15:19:33;72.27;;;30.00;;
5559;SDS011;2803;47.916;8.074;2022-12-18T15:22:04;91.83;;;34.13;;
5559;SDS011;2803;47.916;8.074;2022-12-18T15:24:43;57.93;;;24.63;;
5559;SDS011;2803;47.916;8.074;2022-12-18T15:27:19;82.93;;;30.20;;